sensor_id;sensor_type;location;lat;lon;timestamp;P1;P2;P0
65973;PMS5003;52729;54.906;73.316;2022-10-22T00:01:04;5.00;5.00;0.00
65973;PMS5003;52729;54.906;73.316;2022-10-22T00:04:15;4.00;4.00;0.00
65973;PMS5003;52729;54.906;73.316;2022-10-22T00:07:26;4.00;3.00;0.00
65973;PMS5003;52729;54.906;73.316;2022-10-22T00:10:27;2.33;1.00;0.00
65973;PMS5003;52729;54.906;73.316;2022-10-22T00:13:31;2.00;1.00;0.00
65973;PMS5003;52729;54.906;73.316;2022-10-22T00:16:32;0.00;0.00;0.00
65973;PMS5003;52729;54.906;73.316;2022-10-22T00:19:33;1.00;1.00;0.00
65973;PMS5003;52729;54.906;73.316;2022-10-22T00:22:33;0.00;0.00;0.00
65973;PMS5003;52729;54.906;73.316;2022-10-22T00:25:34;2.00;0.00;0.00
65973;PMS5003;52729;54.906;73.316;2022-10-22T00:28:45;1.00;0.00;0.00
65973;PMS5003;52729;54.906;73.316;2022-10-22T00:31:51;0.00;0.00;0.00
65973;PMS5003;52729;54.906;73.316;2022-10-22T00:35:02;1.00;0.00;0.00
65973;PMS5003;52729;54.906;73.316;2022-10-22T00:38:03;2.00;1.00;0.00
65973;PMS5003;52729;54.906;73.316;2022-10-22T00:41:04;3.33;2.33;0.00
65973;PMS5003;52729;54.906;73.316;2022-10-22T00:44:05;5.00;5.00;0.00
65973;PMS5003;52729;54.906;73.316;2022-10-22T00:47:06;18.00;14.00;8.33
65973;PMS5003;52729;54.906;73.316;2022-10-22T00:50:12;18.00;16.00;6.00
65973;PMS5003;52729;54.906;73.316;2022-10-22T00:53:20;17.00;14.00;5.00
65973;PMS5003;52729;54.906;73.316;2022-10-22T00:56:22;7.00;5.00;2.00
65973;PMS5003;52729;54.906;73.316;2022-10-22T00:59:24;5.67;5.00;2.00
65973;PMS5003;52729;54.906;73.316;2022-10-22T01:02:25;4.00;4.00;2.00
65973;PMS5003;52729;54.906;73.316;2022-10-22T01:05:39;17.00;15.00;8.67
65973;PMS5003;52729;54.906;73.316;2022-10-22T01:12:02;15.00;15.00;5.33
65973;PMS5003;52729;54.906;73.316;2022-10-22T01:15:23;14.00;14.00;5.00
65973;PMS5003;52729;54.906;73.316;2022-10-22T01:21:38;5.00;3.00;1.00
65973;PMS5003;52729;54.906;73.316;2022-10-22T01:31:29;3.00;3.00;0.00
65973;PMS5003;52729;54.906;73.316;2022-10-22T01:34:31;5.00;4.00;0.00
65973;PMS5003;52729;54.906;73.316;2022-10-22T01:37:40;5.00;5.00;0.00
65973;PMS5003;52729;54.906;73.316;2022-10-22T01:40:42;5.00;5.00;1.00
65973;PMS5003;52729;54.906;73.316;2022-10-22T01:43:43;4.00;4.00;1.00
65973;PMS5003;52729;54.906;73.316;2022-10-22T01:46:44;6.00;5.00;1.00
65973;PMS5003;52729;54.906;73.316;2022-10-22T01:59:16;7.00;7.00;2.33
65973;PMS5003;52729;54.906;73.316;2022-10-22T02:03:05;8.00;8.00;4.00
65973;PMS5003;52729;54.906;73.316;2022-10-22T02:05:53;10.00;9.00;5.00
65973;PMS5003;52729;54.906;73.316;2022-10-22T02:09:06;11.00;9.00;5.00
65973;PMS5003;52729;54.906;73.316;2022-10-22T02:12:07;10.67;10.00;5.00
65973;PMS5003;52729;54.906;73.316;2022-10-22T02:15:09;14.00;10.00;5.00
65973;PMS5003;52729;54.906;73.316;2022-10-22T02:18:11;13.00;10.00;4.33
65973;PMS5003;52729;54.906;73.316;2022-10-22T02:21:22;12.00;9.00;5.00
65973;PMS5003;52729;54.906;73.316;2022-10-22T02:24:24;13.67;11.67;5.67
65973;PMS5003;52729;54.906;73.316;2022-10-22T02:27:32;14.00;14.00;5.00
65973;PMS5003;52729;54.906;73.316;2022-10-22T02:30:36;13.00;12.00;5.00
65973;PMS5003;52729;54.906;73.316;2022-10-22T02:33:41;13.33;9.00;4.00
65973;PMS5003;52729;54.906;73.316;2022-10-22T02:36:47;11.00;8.00;4.00
65973;PMS5003;52729;54.906;73.316;2022-10-22T02:39:49;11.33;10.67;4.00
65973;PMS5003;52729;54.906;73.316;2022-10-22T02:42:51;14.00;12.33;5.67
65973;PMS5003;52729;54.906;73.316;2022-10-22T02:45:52;16.00;14.00;5.33
65973;PMS5003;52729;54.906;73.316;2022-10-22T02:48:54;17.00;16.00;6.00
65973;PMS5003;52729;54.906;73.316;2022-10-22T02:51:55;16.00;14.00;5.00
65973;PMS5003;52729;54.906;73.316;2022-10-22T02:54:56;16.00;13.00;4.67
65973;PMS5003;52729;54.906;73.316;2022-10-22T02:57:57;13.33;10.33;4.00
65973;PMS5003;52729;54.906;73.316;2022-10-22T03:00:58;13.00;11.00;4.33
65973;PMS5003;52729;54.906;73.316;2022-10-22T03:03:59;11.00;10.00;4.00
65973;PMS5003;52729;54.906;73.316;2022-10-22T03:07:00;11.33;9.00;5.00
65973;PMS5003;52729;54.906;73.316;2022-10-22T03:10:01;12.00;10.00;5.00
65973;PMS5003;52729;54.906;73.316;2022-10-22T03:13:02;14.00;11.00;4.00
65973;PMS5003;52729;54.906;73.316;2022-10-22T03:16:09;15.00;12.00;5.00
65973;PMS5003;52729;54.906;73.316;2022-10-22T03:19:11;13.00;9.00;4.00
65973;PMS5003;52729;54.906;73.316;2022-10-22T03:22:16;12.33;9.67;4.67
65973;PMS5003;52729;54.906;73.316;2022-10-22T03:25:20;15.33;15.00;5.00
65973;PMS5003;52729;54.906;73.316;2022-10-22T03:28:22;15.00;15.00;5.00
65973;PMS5003;52729;54.906;73.316;2022-10-22T03:31:23;20.67;17.67;9.33
65973;PMS5003;52729;54.906;73.316;2022-10-22T03:34:31;24.00;21.00;11.33
65973;PMS5003;52729;54.906;73.316;2022-10-22T03:37:32;18.00;17.00;7.00
65973;PMS5003;52729;54.906;73.316;2022-10-22T03:40:43;17.67;16.00;8.00
65973;PMS5003;52729;54.906;73.316;2022-10-22T03:43:45;16.00;15.33;6.00
65973;PMS5003;52729;54.906;73.316;2022-10-22T03:46:50;19.00;17.67;6.67
65973;PMS5003;52729;54.906;73.316;2022-10-22T03:49:51;16.33;16.33;5.00
65973;PMS5003;52729;54.906;73.316;2022-10-22T03:52:52;14.00;14.00;5.00
65973;PMS5003;52729;54.906;73.316;2022-10-22T03:55:54;9.00;8.00;3.00
65973;PMS5003;52729;54.906;73.316;2022-10-22T03:59:01;6.00;5.00;1.00
65973;PMS5003;52729;54.906;73.316;2022-10-22T04:02:02;5.00;4.33;2.00
65973;PMS5003;52729;54.906;73.316;2022-10-22T04:05:03;5.67;5.00;2.00
65973;PMS5003;52729;54.906;73.316;2022-10-22T04:08:04;6.33;6.33;2.00
65973;PMS5003;52729;54.906;73.316;2022-10-22T04:11:10;6.00;6.00;2.00
65973;PMS5003;52729;54.906;73.316;2022-10-22T04:14:11;9.00;7.00;3.00
65973;PMS5003;52729;54.906;73.316;2022-10-22T04:17:12;8.00;6.00;1.00
65973;PMS5003;52729;54.906;73.316;2022-10-22T04:20:13;7.00;7.00;2.33
65973;PMS5003;52729;54.906;73.316;2022-10-22T04:23:24;7.67;7.67;3.33
65973;PMS5003;52729;54.906;73.316;2022-10-22T04:26:25;8.00;7.00;1.00
65973;PMS5003;52729;54.906;73.316;2022-10-22T04:29:34;6.67;5.00;2.33
65973;PMS5003;52729;54.906;73.316;2022-10-22T04:32:35;7.00;6.00;3.00
65973;PMS5003;52729;54.906;73.316;2022-10-22T04:35:37;8.00;6.67;3.00
65973;PMS5003;52729;54.906;73.316;2022-10-22T04:38:38;8.00;7.00;4.00
65973;PMS5003;52729;54.906;73.316;2022-10-22T04:41:39;9.67;8.00;4.00
65973;PMS5003;52729;54.906;73.316;2022-10-22T04:44:40;10.00;9.67;4.00
65973;PMS5003;52729;54.906;73.316;2022-10-22T04:47:41;11.00;9.00;4.00
65973;PMS5003;52729;54.906;73.316;2022-10-22T04:50:42;14.33;11.00;5.00
65973;PMS5003;52729;54.906;73.316;2022-10-22T04:53:44;12.67;11.00;5.00
65973;PMS5003;52729;54.906;73.316;2022-10-22T04:56:45;10.00;9.00;2.00
65973;PMS5003;52729;54.906;73.316;2022-10-22T04:59:46;9.67;7.67;4.00
65973;PMS5003;52729;54.906;73.316;2022-10-22T05:02:58;9.00;8.00;3.33
65973;PMS5003;52729;54.906;73.316;2022-10-22T05:06:04;8.33;8.33;2.67
65973;PMS5003;52729;54.906;73.316;2022-10-22T05:09:12;13.00;11.33;4.67
65973;PMS5003;52729;54.906;73.316;2022-10-22T05:12:13;13.00;10.33;3.00
65973;PMS5003;52729;54.906;73.316;2022-10-22T05:15:14;12.00;8.33;3.00
65973;PMS5003;52729;54.906;73.316;2022-10-22T05:18:15;9.33;7.00;3.67
65973;PMS5003;52729;54.906;73.316;2022-10-22T05:21:27;8.00;7.00;4.00
65973;PMS5003;52729;54.906;73.316;2022-10-22T05:24:32;14.33;12.67;4.00
65973;PMS5003;52729;54.906;73.316;2022-10-22T05:27:34;14.00;12.67;5.00
65973;PMS5003;52729;54.906;73.316;2022-10-22T05:30:35;15.00;12.00;5.00
65973;PMS5003;52729;54.906;73.316;2022-10-22T05:33:36;18.00;13.33;6.00
65973;PMS5003;52729;54.906;73.316;2022-10-22T05:36:43;19.00;14.00;5.00
65973;PMS5003;52729;54.906;73.316;2022-10-22T05:39:44;17.33;14.67;5.00
65973;PMS5003;52729;54.906;73.316;2022-10-22T05:42:45;16.00;15.33;6.67
65973;PMS5003;52729;54.906;73.316;2022-10-22T05:45:46;15.00;14.00;5.00
65973;PMS5003;52729;54.906;73.316;2022-10-22T05:48:53;19.33;17.33;8.00
65973;PMS5003;52729;54.906;73.316;2022-10-22T05:51:54;19.33;18.33;7.33
65973;PMS5003;52729;54.906;73.316;2022-10-22T05:54:55;16.67;14.33;4.33
65973;PMS5003;52729;54.906;73.316;2022-10-22T05:57:56;18.00;16.00;5.00
65973;PMS5003;52729;54.906;73.316;2022-10-22T06:01:37;16.00;16.00;5.00
65973;PMS5003;52729;54.906;73.316;2022-10-22T06:04:31;16.33;16.33;6.00
65973;PMS5003;52729;54.906;73.316;2022-10-22T06:07:32;18.67;16.00;7.33
65973;PMS5003;52729;54.906;73.316;2022-10-22T06:10:41;20.00;18.00;7.00
65973;PMS5003;52729;54.906;73.316;2022-10-22T06:13:48;17.33;15.00;6.00
65973;PMS5003;52729;54.906;73.316;2022-10-22T06:16:49;16.00;15.33;5.00
65973;PMS5003;52729;54.906;73.316;2022-10-22T06:19:51;15.00;15.00;5.00
65973;PMS5003;52729;54.906;73.316;2022-10-22T06:22:52;18.00;16.33;6.67
65973;PMS5003;52729;54.906;73.316;2022-10-22T06:26:03;18.00;16.00;7.00
65973;PMS5003;52729;54.906;73.316;2022-10-22T06:29:04;20.00;16.67;8.00
65973;PMS5003;52729;54.906;73.316;2022-10-22T06:32:05;19.33;17.00;6.00
65973;PMS5003;52729;54.906;73.316;2022-10-22T06:35:06;17.00;15.00;5.00
65973;PMS5003;52729;54.906;73.316;2022-10-22T06:38:18;15.00;14.67;5.00
65973;PMS5003;52729;54.906;73.316;2022-10-22T06:41:19;13.00;11.67;5.00
65973;PMS5003;52729;54.906;73.316;2022-10-22T06:44:20;13.33;12.33;5.00
65973;PMS5003;52729;54.906;73.316;2022-10-22T06:47:21;16.33;13.00;4.00
65973;PMS5003;52729;54.906;73.316;2022-10-22T06:50:22;15.67;14.00;5.00
65973;PMS5003;52729;54.906;73.316;2022-10-22T06:53:23;15.33;15.00;5.00
65973;PMS5003;52729;54.906;73.316;2022-10-22T06:56:25;18.67;16.00;5.00
65973;PMS5003;52729;54.906;73.316;2022-10-22T06:59:31;18.00;15.33;5.00
65973;PMS5003;52729;54.906;73.316;2022-10-22T07:02:32;16.00;15.00;5.00
65973;PMS5003;52729;54.906;73.316;2022-10-22T07:05:34;19.33;18.67;8.67
65973;PMS5003;52729;54.906;73.316;2022-10-22T07:08:35;19.00;17.00;9.00
65973;PMS5003;52729;54.906;73.316;2022-10-22T07:11:40;18.33;15.67;6.00
65973;PMS5003;52729;54.906;73.316;2022-10-22T07:14:41;16.00;15.33;5.00
65973;PMS5003;52729;54.906;73.316;2022-10-22T07:17:43;20.67;18.00;8.00
65973;PMS5003;52729;54.906;73.316;2022-10-22T07:20:44;20.00;17.00;6.00
65973;PMS5003;52729;54.906;73.316;2022-10-22T07:23:45;17.00;15.33;6.33
65973;PMS5003;52729;54.906;73.316;2022-10-22T07:26:46;22.33;21.00;10.33
65973;PMS5003;52729;54.906;73.316;2022-10-22T07:29:58;20.67;19.67;12.00
65973;PMS5003;52729;54.906;73.316;2022-10-22T07:33:10;17.33;17.00;7.00
65973;PMS5003;52729;54.906;73.316;2022-10-22T07:36:12;17.33;15.00;6.67
65973;PMS5003;52729;54.906;73.316;2022-10-22T07:39:17;17.00;16.33;5.67
65973;PMS5003;52729;54.906;73.316;2022-10-22T07:42:27;19.00;18.00;7.67
65973;PMS5003;52729;54.906;73.316;2022-10-22T07:45:28;16.67;16.00;5.67
65973;PMS5003;52729;54.906;73.316;2022-10-22T07:48:29;17.00;13.00;5.00
65973;PMS5003;52729;54.906;73.316;2022-10-22T07:51:30;15.00;12.00;4.00
65973;PMS5003;52729;54.906;73.316;2022-10-22T07:54:36;11.33;7.00;3.00
65973;PMS5003;52729;54.906;73.316;2022-10-22T07:57:42;10.00;7.00;3.33
65973;PMS5003;52729;54.906;73.316;2022-10-22T08:00:43;11.00;10.00;4.67
65973;PMS5003;52729;54.906;73.316;2022-10-22T08:03:45;8.33;6.00;3.00
65973;PMS5003;52729;54.906;73.316;2022-10-22T08:06:46;7.00;7.00;3.00
65973;PMS5003;52729;54.906;73.316;2022-10-22T08:09:47;9.67;9.00;4.00
65973;PMS5003;52729;54.906;73.316;2022-10-22T08:12:49;13.67;12.00;4.33
65973;PMS5003;52729;54.906;73.316;2022-10-22T08:15:50;14.00;9.33;3.00
65973;PMS5003;52729;54.906;73.316;2022-10-22T08:18:51;10.00;6.00;1.00
65973;PMS5003;52729;54.906;73.316;2022-10-22T08:21:52;6.00;6.00;3.00
65973;PMS5003;52729;54.906;73.316;2022-10-22T08:24:53;8.00;8.00;4.00
65973;PMS5003;52729;54.906;73.316;2022-10-22T08:27:54;8.00;8.00;4.00
65973;PMS5003;52729;54.906;73.316;2022-10-22T08:30:55;10.00;9.00;4.00
65973;PMS5003;52729;54.906;73.316;2022-10-22T08:33:56;10.00;9.00;4.00
65973;PMS5003;52729;54.906;73.316;2022-10-22T08:37:07;9.67;8.00;4.00
65973;PMS5003;52729;54.906;73.316;2022-10-22T08:40:12;7.00;7.00;3.00
65973;PMS5003;52729;54.906;73.316;2022-10-22T08:49:57;5.00;4.00;2.67
65973;PMS5003;52729;54.906;73.316;2022-10-22T08:53:00;4.33;4.33;2.00
65973;PMS5003;52729;54.906;73.316;2022-10-22T08:56:08;6.00;5.00;2.00
65973;PMS5003;52729;54.906;73.316;2022-10-22T09:08:47;9.00;9.00;4.33
65973;PMS5003;52729;54.906;73.316;2022-10-22T09:11:49;8.00;8.00;4.00
65973;PMS5003;52729;54.906;73.316;2022-10-22T09:14:58;8.00;7.00;4.00
65973;PMS5003;52729;54.906;73.316;2022-10-22T09:18:14;8.33;8.33;4.00
65973;PMS5003;52729;54.906;73.316;2022-10-22T09:21:26;11.00;9.00;4.00
65973;PMS5003;52729;54.906;73.316;2022-10-22T09:24:36;10.67;8.00;3.00
65973;PMS5003;52729;54.906;73.316;2022-10-22T09:27:37;7.00;5.00;3.00
65973;PMS5003;52729;54.906;73.316;2022-10-22T09:30:39;5.00;5.00;2.00
65973;PMS5003;52729;54.906;73.316;2022-10-22T09:33:40;6.00;5.00;2.00
65973;PMS5003;52729;54.906;73.316;2022-10-22T09:36:42;4.33;4.00;2.00
65973;PMS5003;52729;54.906;73.316;2022-10-22T09:39:53;4.67;4.33;2.00
65973;PMS5003;52729;54.906;73.316;2022-10-22T09:42:58;2.00;2.00;0.00
65973;PMS5003;52729;54.906;73.316;2022-10-22T09:46:05;0.67;0.67;0.00
65973;PMS5003;52729;54.906;73.316;2022-10-22T09:49:09;4.00;4.00;0.67
65973;PMS5003;52729;54.906;73.316;2022-10-22T09:52:23;1.67;1.67;0.00
65973;PMS5003;52729;54.906;73.316;2022-10-22T09:55:37;1.00;1.00;0.00
65973;PMS5003;52729;54.906;73.316;2022-10-22T09:58:42;2.00;2.00;0.00
65973;PMS5003;52729;54.906;73.316;2022-10-22T10:01:44;4.00;4.00;0.00
65973;PMS5003;52729;54.906;73.316;2022-10-22T10:04:46;2.00;2.00;0.00
65973;PMS5003;52729;54.906;73.316;2022-10-22T10:07:52;2.33;2.33;0.00
65973;PMS5003;52729;54.906;73.316;2022-10-22T10:10:55;2.00;2.00;0.00
65973;PMS5003;52729;54.906;73.316;2022-10-22T10:17:28;3.00;2.00;0.00
65973;PMS5003;52729;54.906;73.316;2022-10-22T10:20:50;6.00;5.00;0.33
65973;PMS5003;52729;54.906;73.316;2022-10-22T10:30:33;7.33;6.67;2.33
65973;PMS5003;52729;54.906;73.316;2022-10-22T10:33:45;6.00;6.00;4.00
65973;PMS5003;52729;54.906;73.316;2022-10-22T10:46:54;8.00;7.00;3.00
65973;PMS5003;52729;54.906;73.316;2022-10-22T10:50:04;8.00;7.67;3.33
65973;PMS5003;52729;54.906;73.316;2022-10-22T10:53:20;8.00;7.33;3.33
65973;PMS5003;52729;54.906;73.316;2022-10-22T11:03:09;18.00;15.00;7.00
65973;PMS5003;52729;54.906;73.316;2022-10-22T11:06:21;17.33;15.00;7.00
65973;PMS5003;52729;54.906;73.316;2022-10-22T11:09:26;15.00;14.00;4.00
65973;PMS5003;52729;54.906;73.316;2022-10-22T11:12:38;15.67;14.00;5.67
65973;PMS5003;52729;54.906;73.316;2022-10-22T11:15:41;17.00;15.00;7.00
65973;PMS5003;52729;54.906;73.316;2022-10-22T11:18:47;15.33;15.00;6.00
65973;PMS5003;52729;54.906;73.316;2022-10-22T11:21:53;16.67;16.00;7.00
65973;PMS5003;52729;54.906;73.316;2022-10-22T11:28:17;16.00;16.00;7.33
65973;PMS5003;52729;54.906;73.316;2022-10-22T11:31:21;18.33;16.67;7.00
65973;PMS5003;52729;54.906;73.316;2022-10-22T11:35:17;21.33;17.33;7.00
65973;PMS5003;52729;54.906;73.316;2022-10-22T11:37:59;21.00;17.00;8.67
65973;PMS5003;52729;54.906;73.316;2022-10-22T11:41:03;17.67;16.33;7.00
65973;PMS5003;52729;54.906;73.316;2022-10-22T11:44:20;19.00;18.00;8.00
65973;PMS5003;52729;54.906;73.316;2022-10-22T11:47:33;21.33;18.33;7.67
65973;PMS5003;52729;54.906;73.316;2022-10-22T11:50:54;22.33;18.33;8.00
65973;PMS5003;52729;54.906;73.316;2022-10-22T12:00:40;22.67;22.00;11.00
65973;PMS5003;52729;54.906;73.316;2022-10-22T12:03:50;22.00;19.33;10.33
65973;PMS5003;52729;54.906;73.316;2022-10-22T12:06:52;19.00;18.00;9.67
65973;PMS5003;52729;54.906;73.316;2022-10-22T12:09:54;21.33;20.00;9.33
65973;PMS5003;52729;54.906;73.316;2022-10-22T12:12:56;18.67;18.33;8.67
65973;PMS5003;52729;54.906;73.316;2022-10-22T12:15:58;31.33;26.67;15.33
65973;PMS5003;52729;54.906;73.316;2022-10-22T12:19:20;30.00;25.33;15.00
65973;PMS5003;52729;54.906;73.316;2022-10-22T12:22:28;26.00;23.00;14.00
65973;PMS5003;52729;54.906;73.316;2022-10-22T12:25:30;25.33;21.33;14.00
65973;PMS5003;52729;54.906;73.316;2022-10-22T12:28:38;22.00;20.67;14.00
65973;PMS5003;52729;54.906;73.316;2022-10-22T12:31:40;22.33;21.00;14.00
65973;PMS5003;52729;54.906;73.316;2022-10-22T12:34:51;23.33;20.00;12.67
65973;PMS5003;52729;54.906;73.316;2022-10-22T12:38:02;27.00;20.67;13.00
65973;PMS5003;52729;54.906;73.316;2022-10-22T12:41:04;27.00;23.33;13.00
65973;PMS5003;52729;54.906;73.316;2022-10-22T12:44:05;28.33;24.33;13.33
65973;PMS5003;52729;54.906;73.316;2022-10-22T12:47:17;31.00;25.00;15.00
65973;PMS5003;52729;54.906;73.316;2022-10-22T12:50:19;30.00;24.33;15.00
65973;PMS5003;52729;54.906;73.316;2022-10-22T12:53:26;27.00;24.00;15.00
65973;PMS5003;52729;54.906;73.316;2022-10-22T12:56:30;26.00;21.00;14.00
65973;PMS5003;52729;54.906;73.316;2022-10-22T12:59:33;22.33;20.00;10.00
65973;PMS5003;52729;54.906;73.316;2022-10-22T13:02:38;19.00;16.00;7.00
65973;PMS5003;52729;54.906;73.316;2022-10-22T13:05:52;17.00;14.00;6.00
65973;PMS5003;52729;54.906;73.316;2022-10-22T13:12:08;17.33;16.00;6.00
65973;PMS5003;52729;54.906;73.316;2022-10-22T13:15:20;16.00;15.33;6.00
65973;PMS5003;52729;54.906;73.316;2022-10-22T13:18:22;16.00;15.33;5.00
65973;PMS5003;52729;54.906;73.316;2022-10-22T13:21:36;16.00;15.00;5.00
65973;PMS5003;52729;54.906;73.316;2022-10-22T13:24:47;14.00;13.00;4.00
65973;PMS5003;52729;54.906;73.316;2022-10-22T13:27:49;13.00;12.00;4.00
65973;PMS5003;52729;54.906;73.316;2022-10-22T13:31:01;15.67;11.67;4.00
65973;PMS5003;52729;54.906;73.316;2022-10-22T13:34:12;17.67;15.00;6.67
65973;PMS5003;52729;54.906;73.316;2022-10-22T13:37:13;18.00;16.67;6.33
65973;PMS5003;52729;54.906;73.316;2022-10-22T13:40:25;23.00;20.33;8.67
65973;PMS5003;52729;54.906;73.316;2022-10-22T13:43:26;23.67;22.00;13.00
65973;PMS5003;52729;54.906;73.316;2022-10-22T13:46:27;24.33;22.33;13.00
65973;PMS5003;52729;54.906;73.316;2022-10-22T13:49:28;29.33;24.00;15.00
65973;PMS5003;52729;54.906;73.316;2022-10-22T13:52:33;30.33;24.00;15.00
65973;PMS5003;52729;54.906;73.316;2022-10-22T13:55:43;24.67;23.00;13.33
65973;PMS5003;52729;54.906;73.316;2022-10-22T13:58:45;24.00;23.33;13.33
65973;PMS5003;52729;54.906;73.316;2022-10-22T14:01:47;27.67;24.00;14.00
65973;PMS5003;52729;54.906;73.316;2022-10-22T14:04:48;25.67;23.00;13.00
65973;PMS5003;52729;54.906;73.316;2022-10-22T14:07:49;20.33;19.33;10.00
65973;PMS5003;52729;54.906;73.316;2022-10-22T14:10:50;20.00;20.00;9.67
65973;PMS5003;52729;54.906;73.316;2022-10-22T14:13:52;23.33;21.00;10.00
65973;PMS5003;52729;54.906;73.316;2022-10-22T14:16:53;23.00;21.00;13.00
65973;PMS5003;52729;54.906;73.316;2022-10-22T14:19:54;21.00;20.00;12.67
65973;PMS5003;52729;54.906;73.316;2022-10-22T14:22:55;21.00;19.00;11.00
65973;PMS5003;52729;54.906;73.316;2022-10-22T14:26:00;19.67;17.67;9.00
65973;PMS5003;52729;54.906;73.316;2022-10-22T14:29:01;22.67;22.00;10.00
65973;PMS5003;52729;54.906;73.316;2022-10-22T14:32:02;22.00;20.00;10.00
65973;PMS5003;52729;54.906;73.316;2022-10-22T14:35:12;23.00;19.33;10.67
65973;PMS5003;52729;54.906;73.316;2022-10-22T14:38:14;26.33;23.33;12.67
65973;PMS5003;52729;54.906;73.316;2022-10-22T14:41:22;26.00;23.00;13.00
65973;PMS5003;52729;54.906;73.316;2022-10-22T14:44:24;22.00;21.00;12.00
65973;PMS5003;52729;54.906;73.316;2022-10-22T14:47:25;25.00;23.00;13.00
65973;PMS5003;52729;54.906;73.316;2022-10-22T14:50:26;24.00;22.00;13.00
65973;PMS5003;52729;54.906;73.316;2022-10-22T14:53:27;23.00;20.00;9.00
65973;PMS5003;52729;54.906;73.316;2022-10-22T14:56:31;23.00;18.33;7.33
65973;PMS5003;52729;54.906;73.316;2022-10-22T14:59:32;22.33;19.33;9.33
65973;PMS5003;52729;54.906;73.316;2022-10-22T15:02:44;22.67;20.00;11.00
65973;PMS5003;52729;54.906;73.316;2022-10-22T15:05:45;24.33;21.33;11.33
65973;PMS5003;52729;54.906;73.316;2022-10-22T15:08:46;27.00;24.67;14.00
65973;PMS5003;52729;54.906;73.316;2022-10-22T15:11:48;26.33;23.33;14.00
65973;PMS5003;52729;54.906;73.316;2022-10-22T15:14:49;25.33;23.00;13.00
65973;PMS5003;52729;54.906;73.316;2022-10-22T15:17:50;25.33;22.00;12.33
65973;PMS5003;52729;54.906;73.316;2022-10-22T15:20:55;25.00;23.00;13.00
65973;PMS5003;52729;54.906;73.316;2022-10-22T15:23:56;26.33;23.00;13.00
65973;PMS5003;52729;54.906;73.316;2022-10-22T15:26:58;26.00;23.00;13.00
65973;PMS5003;52729;54.906;73.316;2022-10-22T15:29:59;27.67;24.00;14.33
65973;PMS5003;52729;54.906;73.316;2022-10-22T15:33:00;26.33;23.00;13.67
65973;PMS5003;52729;54.906;73.316;2022-10-22T15:36:09;25.00;21.67;12.00
65973;PMS5003;52729;54.906;73.316;2022-10-22T15:39:13;25.00;21.67;13.00
65973;PMS5003;52729;54.906;73.316;2022-10-22T15:42:14;24.33;23.00;13.00
65973;PMS5003;52729;54.906;73.316;2022-10-22T15:45:16;23.00;20.67;12.00
65973;PMS5003;52729;54.906;73.316;2022-10-22T15:48:16;22.00;20.00;11.00
65973;PMS5003;52729;54.906;73.316;2022-10-22T15:51:18;22.33;18.67;10.00
65973;PMS5003;52729;54.906;73.316;2022-10-22T15:54:20;23.00;20.00;10.00
65973;PMS5003;52729;54.906;73.316;2022-10-22T15:57:23;23.33;20.00;8.00
65973;PMS5003;52729;54.906;73.316;2022-10-22T16:00:24;24.33;22.00;10.00
65973;PMS5003;52729;54.906;73.316;2022-10-22T16:03:28;21.00;19.00;8.00
65973;PMS5003;52729;54.906;73.316;2022-10-22T16:09:40;20.00;20.00;8.00
65973;PMS5003;52729;54.906;73.316;2022-10-22T16:12:45;20.33;18.33;8.67
65973;PMS5003;52729;54.906;73.316;2022-10-22T16:15:49;20.00;18.00;9.00
65973;PMS5003;52729;54.906;73.316;2022-10-22T16:19:01;21.00;18.00;7.00
65973;PMS5003;52729;54.906;73.316;2022-10-22T16:22:02;20.00;19.00;8.00
65973;PMS5003;52729;54.906;73.316;2022-10-22T16:25:03;20.33;18.00;7.00
65973;PMS5003;52729;54.906;73.316;2022-10-22T16:28:05;21.33;17.00;6.33
65973;PMS5003;52729;54.906;73.316;2022-10-22T16:31:12;20.00;17.00;7.00
65973;PMS5003;52729;54.906;73.316;2022-10-22T16:34:21;19.33;17.00;7.00
65973;PMS5003;52729;54.906;73.316;2022-10-22T16:37:24;16.33;15.00;5.67
65973;PMS5003;52729;54.906;73.316;2022-10-22T16:40:25;16.33;15.00;5.00
65973;PMS5003;52729;54.906;73.316;2022-10-22T16:43:27;16.33;13.00;4.33
65973;PMS5003;52729;54.906;73.316;2022-10-22T16:46:29;16.33;14.00;6.00
65973;PMS5003;52729;54.906;73.316;2022-10-22T16:49:30;20.00;14.00;6.00
65973;PMS5003;52729;54.906;73.316;2022-10-22T16:52:31;17.00;14.00;5.00
65973;PMS5003;52729;54.906;73.316;2022-10-22T16:55:42;17.00;15.00;5.00
65973;PMS5003;52729;54.906;73.316;2022-10-22T16:58:45;16.00;14.00;6.00
65973;PMS5003;52729;54.906;73.316;2022-10-22T17:01:46;13.00;13.00;5.33
65973;PMS5003;52729;54.906;73.316;2022-10-22T17:04:49;15.00;13.00;5.00
65973;PMS5003;52729;54.906;73.316;2022-10-22T17:07:53;15.00;13.00;6.00
65973;PMS5003;52729;54.906;73.316;2022-10-22T17:10:54;16.00;16.00;6.00
65973;PMS5003;52729;54.906;73.316;2022-10-22T17:13:55;13.33;13.00;6.00
65973;PMS5003;52729;54.906;73.316;2022-10-22T17:16:56;14.00;13.00;5.00
65973;PMS5003;52729;54.906;73.316;2022-10-22T17:19:58;16.00;13.00;4.00
65973;PMS5003;52729;54.906;73.316;2022-10-22T17:22:59;17.00;15.00;4.00
65973;PMS5003;52729;54.906;73.316;2022-10-22T17:26:00;15.33;13.00;4.33
65973;PMS5003;52729;54.906;73.316;2022-10-22T17:29:10;16.00;13.00;4.00
65973;PMS5003;52729;54.906;73.316;2022-10-22T17:32:11;17.00;14.00;5.33
65973;PMS5003;52729;54.906;73.316;2022-10-22T17:35:18;17.00;15.00;6.00
65973;PMS5003;52729;54.906;73.316;2022-10-22T17:38:24;14.33;13.00;5.00
65973;PMS5003;52729;54.906;73.316;2022-10-22T17:41:29;15.00;13.00;4.00
65973;PMS5003;52729;54.906;73.316;2022-10-22T17:44:31;16.00;13.00;3.00
65973;PMS5003;52729;54.906;73.316;2022-10-22T17:47:32;12.67;10.00;3.00
65973;PMS5003;52729;54.906;73.316;2022-10-22T17:50:42;10.67;9.33;3.00
65973;PMS5003;52729;54.906;73.316;2022-10-22T17:53:43;8.67;6.00;2.00
65973;PMS5003;52729;54.906;73.316;2022-10-22T17:56:54;6.00;6.00;3.00
65973;PMS5003;52729;54.906;73.316;2022-10-22T17:59:55;8.00;6.00;2.67
65973;PMS5003;52729;54.906;73.316;2022-10-22T18:03:01;6.67;6.00;3.00
65973;PMS5003;52729;54.906;73.316;2022-10-22T18:06:06;6.00;5.00;2.00
65973;PMS5003;52729;54.906;73.316;2022-10-22T18:09:08;6.00;6.00;2.00
65973;PMS5003;52729;54.906;73.316;2022-10-22T18:12:13;4.33;3.00;1.00
65973;PMS5003;52729;54.906;73.316;2022-10-22T18:15:17;5.00;4.33;1.67
65973;PMS5003;52729;54.906;73.316;2022-10-22T18:18:28;4.67;4.00;1.00
65973;PMS5003;52729;54.906;73.316;2022-10-22T18:21:30;3.00;3.00;0.00
65973;PMS5003;52729;54.906;73.316;2022-10-22T18:24:35;0.00;0.00;0.00
65973;PMS5003;52729;54.906;73.316;2022-10-22T18:27:36;1.00;1.00;0.00
65973;PMS5003;52729;54.906;73.316;2022-10-22T18:30:38;0.00;0.00;0.00
65973;PMS5003;52729;54.906;73.316;2022-10-22T18:33:42;0.33;0.00;0.00
65973;PMS5003;52729;54.906;73.316;2022-10-22T18:36:43;0.00;0.00;0.00
65973;PMS5003;52729;54.906;73.316;2022-10-22T18:39:54;0.00;0.00;0.00
65973;PMS5003;52729;54.906;73.316;2022-10-22T18:42:55;0.00;0.00;0.00